Decoded Metar for LFMV (AVIGNON in FRANCE) (IATA:AVN) | Meteo·Mobile Aviation Weather
aviador You're here:

LFMV Decoded Metar

AVIGNON in FRANCE
Report Time2019-04-20 10:00:00
UTC Time2019-04-20 10:14:51
Flight Rules vfr VFR
Wind030° at 03 kt
W.Decomp.*RWY 35: 2.3 kt HW 1.9 kt RCW
Visibility9999 m
Phenomena:N/A
Clouds:N/A
Expected CloudBase > 6,400 ft AGL from Temp-Dew spread
CeilingNone
Temp22°C (ISA +7)
Dew Point06°C (36% RH)
AAT20.1°C
QNH1024 hPa
Density Alt732 ft
Elevation125 ft
Report Wrong Elevation
Raw Report
LFMV 201000Z AUTO 03003KT 320V110 CAVOK 22/06 Q1024 NOSIG=

Extra information for LFMV:More info

Metar Taf Metar & Taf Last 4 Metars F.Rules Stats Wind Profile Meteogram Temp Stats Airport Information Weather charts Add Link Nearby VenuesMetar ALERT Operation Metar Decoded Social comments